createdAt,value
2019-01-29T00:00:15.567Z,68.12
2019-01-29T00:02:47.011Z,68.11
2019-01-29T00:05:16.425Z,68.22
2019-01-29T00:07:45.063Z,68.01
2019-01-29T00:10:16.210Z,68.15
2019-01-29T00:12:44.567Z,67.65
2019-01-29T00:15:13.679Z,67.67
2019-01-29T00:17:42.975Z,68.70
2019-01-29T00:20:12.816Z,68.50
2019-01-29T00:22:41.127Z,68.42
2019-01-29T00:25:10.720Z,68.51
2019-01-29T00:27:39.051Z,68.25
2019-01-29T00:30:10.397Z,68.68
2019-01-29T00:32:38.718Z,68.19
2019-01-29T00:35:07.225Z,68.42
2019-01-29T00:37:35.543Z,68.81
2019-01-29T00:40:06.583Z,68.95
2019-01-29T00:42:34.977Z,68.46
2019-01-29T00:45:06.278Z,69.11
2019-01-29T00:47:34.674Z,69.02
2019-01-29T00:50:04.273Z,68.90
2019-01-29T00:52:32.598Z,69.96
2019-01-29T00:55:00.925Z,69.72
2019-01-29T00:57:29.237Z,69.78
2019-01-29T00:59:57.634Z,69.94
2019-01-29T01:02:27.634Z,69.87
2019-01-29T01:04:55.949Z,70.29
2019-01-29T01:07:24.346Z,69.94
2019-01-29T01:09:57.343Z,69.71
2019-01-29T01:12:23.235Z,70.67
2019-01-29T01:14:51.626Z,69.97
2019-01-29T01:17:19.920Z,69.46
2019-01-29T01:19:48.336Z,69.00
2019-01-29T01:22:16.740Z,69.00
2019-01-29T01:24:45.181Z,69.30
2019-01-29T01:27:13.605Z,69.54
2019-01-29T01:29:41.965Z,69.95
2019-01-29T01:32:10.485Z,70.07
2019-01-29T01:34:38.831Z,70.24
2019-01-29T01:37:10.492Z,69.78
2019-01-29T01:39:38.845Z,69.53
2019-01-29T01:42:07.224Z,69.36
2019-01-29T01:44:35.552Z,69.42
2019-01-29T01:47:04.010Z,69.39
2019-01-29T01:49:32.347Z,69.32
2019-01-29T01:52:00.665Z,69.84
2019-01-29T01:54:29.016Z,70.73
2019-01-29T01:56:58.001Z,70.95
2019-01-29T01:59:26.376Z,70.89
2019-01-29T02:01:54.685Z,72.28
2019-01-29T02:04:23.022Z,71.92
2019-01-29T02:06:51.341Z,72.87
2019-01-29T02:09:19.720Z,72.58
2019-01-29T02:11:49.023Z,72.48
2019-01-29T02:14:17.335Z,72.63
2019-01-29T02:16:45.682Z,72.82
2019-01-29T02:19:13.998Z,72.85
2019-01-29T02:21:42.324Z,72.65
2019-01-29T02:24:10.699Z,72.47
2019-01-29T02:26:39.034Z,72.85
2019-01-29T02:29:08.281Z,73.15
2019-01-29T02:31:36.747Z,73.29
2019-01-29T02:34:05.137Z,73.64
2019-01-29T02:36:33.508Z,73.96
2019-01-29T02:39:01.935Z,73.05
2019-01-29T02:41:30.348Z,72.80
2019-01-29T02:43:58.646Z,72.56
2019-01-29T02:46:26.995Z,72.47
2019-01-29T02:48:55.295Z,72.91
2019-01-29T02:51:23.654Z,73.44
2019-01-29T02:53:52.408Z,73.25
2019-01-29T02:56:21.828Z,73.32
2019-01-29T02:58:50.189Z,73.38
2019-01-29T03:01:18.607Z,73.53
2019-01-29T03:03:46.955Z,73.48
2019-01-29T03:06:15.373Z,73.54
2019-01-29T03:08:43.670Z,73.93
2019-01-29T03:11:12.503Z,74.33
2019-01-29T03:13:40.805Z,74.34
2019-01-29T03:16:09.236Z,74.17
2019-01-29T03:18:37.551Z,74.30
2019-01-29T03:21:05.961Z,74.05
2019-01-29T03:23:34.318Z,74.27
2019-01-29T03:26:02.644Z,73.23
2019-01-29T03:28:31.036Z,73.63
2019-01-29T03:30:59.473Z,73.37
2019-01-29T03:33:27.974Z,73.50
2019-01-29T03:35:56.411Z,73.14
2019-01-29T03:38:24.725Z,73.19
2019-01-29T03:40:53.108Z,72.77
2019-01-29T03:43:21.489Z,72.84
2019-01-29T03:45:49.833Z,72.73
2019-01-29T03:48:18.329Z,72.29
2019-01-29T03:50:46.753Z,72.16
2019-01-29T03:53:15.145Z,72.90
2019-01-29T03:55:43.686Z,71.93
2019-01-29T03:58:12.593Z,72.52
2019-01-29T04:00:40.946Z,73.25
2019-01-29T04:03:09.422Z,72.50
2019-01-29T04:05:37.827Z,72.21
2019-01-29T04:08:06.295Z,72.12
2019-01-29T04:10:34.660Z,71.85
2019-01-29T04:13:03.082Z,71.82
2019-01-29T04:15:31.508Z,71.46
2019-01-29T04:17:59.892Z,71.64
2019-01-29T04:20:28.307Z,70.90
2019-01-29T04:22:56.634Z,70.67
2019-01-29T04:25:25.162Z,70.62
2019-01-29T04:27:53.657Z,70.84
2019-01-29T04:30:22.825Z,70.74
2019-01-29T04:32:53.423Z,70.89
2019-01-29T04:35:22.081Z,70.82
2019-01-29T04:37:50.479Z,71.59
2019-01-29T04:40:19.707Z,72.04
2019-01-29T04:42:48.099Z,71.51
2019-01-29T04:45:17.761Z,71.03
2019-01-29T04:47:46.146Z,71.78
2019-01-29T04:50:15.981Z,71.16
2019-01-29T04:52:44.463Z,71.96
2019-01-29T04:55:15.382Z,72.34
2019-01-29T04:57:43.848Z,72.89
2019-01-29T05:00:15.023Z,73.51
2019-01-29T05:02:43.418Z,73.27
2019-01-29T05:05:13.471Z,72.90
2019-01-29T05:07:41.994Z,73.69
2019-01-29T05:10:12.352Z,73.87
2019-01-29T05:12:40.751Z,73.69
2019-01-29T05:15:13.132Z,72.53
2019-01-29T05:17:41.674Z,72.49
2019-01-29T05:20:12.889Z,72.75
2019-01-29T05:22:41.164Z,72.27
2019-01-29T05:25:11.393Z,72.07
2019-01-29T05:27:39.887Z,71.97
2019-01-29T05:30:13.227Z,72.25
2019-01-29T05:32:41.574Z,71.65
2019-01-29T05:35:11.616Z,71.50
2019-01-29T05:37:40.044Z,71.71
2019-01-29T05:40:11.248Z,71.61
2019-01-29T05:42:39.643Z,71.20
2019-01-29T05:45:11.836Z,70.93
2019-01-29T05:47:40.213Z,70.74
2019-01-29T05:50:12.315Z,70.86
2019-01-29T05:52:40.738Z,70.58
2019-01-29T05:55:11.022Z,70.61
2019-01-29T05:57:39.392Z,70.55
2019-01-29T06:00:13.651Z,70.67
2019-01-29T06:02:41.941Z,70.02
2019-01-29T06:05:10.744Z,69.88
2019-01-29T06:07:39.050Z,69.87
2019-01-29T06:10:11.709Z,69.91
2019-01-29T06:12:40.014Z,70.49
2019-01-29T06:15:12.840Z,70.69
2019-01-29T06:17:41.227Z,70.88
2019-01-29T06:20:14.382Z,70.36
2019-01-29T06:22:42.710Z,71.17
2019-01-29T06:25:11.506Z,71.42
2019-01-29T06:27:39.806Z,71.79
2019-01-29T06:30:10.421Z,71.41
2019-01-29T06:32:38.753Z,71.52
2019-01-29T06:35:10.280Z,71.76
2019-01-29T06:37:38.753Z,70.94
2019-01-29T06:40:11.466Z,70.70
2019-01-29T06:42:39.773Z,70.90
2019-01-29T06:45:10.899Z,70.48
2019-01-29T06:47:39.285Z,69.90
2019-01-29T06:50:10.030Z,69.17
2019-01-29T06:52:38.377Z,69.19
2019-01-29T06:55:10.614Z,68.84
2019-01-29T06:57:39.026Z,69.14
2019-01-29T07:00:10.874Z,69.37
2019-01-29T07:02:39.220Z,69.16
2019-01-29T07:05:07.973Z,68.93
2019-01-29T07:07:36.324Z,68.69
2019-01-29T07:10:07.320Z,68.17
2019-01-29T07:12:35.721Z,68.69
2019-01-29T07:15:05.533Z,68.87
2019-01-29T07:17:33.864Z,69.15
2019-01-29T07:20:02.244Z,69.34
2019-01-29T07:22:30.574Z,68.71
2019-01-29T07:24:58.996Z,69.67
2019-01-29T07:27:27.377Z,69.98
2019-01-29T07:29:55.697Z,70.57
2019-01-29T07:32:24.353Z,70.82
2019-01-29T07:34:52.655Z,70.67
2019-01-29T07:37:22.054Z,70.88
2019-01-29T07:39:50.729Z,70.39
2019-01-29T07:42:19.029Z,70.58
2019-01-29T07:44:47.384Z,70.64
2019-01-29T07:47:15.703Z,70.25
2019-01-29T07:49:44.010Z,69.46
2019-01-29T07:52:12.933Z,68.65
2019-01-29T07:54:41.312Z,72.95
2019-01-29T07:57:09.789Z,69.05
2019-01-29T07:59:38.137Z,67.45
2019-01-29T08:02:06.609Z,67.37
2019-01-29T08:04:34.961Z,68.43
2019-01-29T08:07:03.811Z,69.32
2019-01-29T08:09:32.135Z,67.67
2019-01-29T08:12:00.506Z,68.46
2019-01-29T08:14:28.863Z,67.05
2019-01-29T08:16:57.244Z,67.07
2019-01-29T08:19:25.571Z,66.21
2019-01-29T08:21:53.883Z,66.69
2019-01-29T08:24:22.331Z,65.81
2019-01-29T08:26:50.748Z,66.46
2019-01-29T08:29:19.129Z,66.87
2019-01-29T08:31:47.433Z,66.36
2019-01-29T08:34:15.884Z,65.43
2019-01-29T08:36:44.209Z,64.21
2019-01-29T08:39:12.528Z,65.31
2019-01-29T08:41:40.857Z,65.11
2019-01-29T08:44:10.483Z,64.80
2019-01-29T08:46:38.808Z,65.57
2019-01-29T08:49:08.518Z,66.16
2019-01-29T08:51:36.829Z,65.65
2019-01-29T08:54:05.255Z,65.85
2019-01-29T08:56:33.586Z,64.80
2019-01-29T08:59:01.928Z,64.78
2019-01-29T09:01:30.328Z,64.37
2019-01-29T09:03:58.694Z,64.48
2019-01-29T09:06:27.410Z,65.10
2019-01-29T09:08:55.820Z,64.32
2019-01-29T09:11:24.207Z,64.54
2019-01-29T09:13:52.505Z,64.91
2019-01-29T09:16:20.871Z,63.34
2019-01-29T09:18:49.192Z,63.74
2019-01-29T09:21:17.530Z,63.51
2019-01-29T09:23:45.856Z,62.85
2019-01-29T09:26:14.173Z,63.24
2019-01-29T09:28:42.487Z,62.92
2019-01-29T09:31:10.830Z,62.21
2019-01-29T09:33:39.253Z,62.31
2019-01-29T09:36:07.899Z,62.94
2019-01-29T09:38:36.216Z,62.57
2019-01-29T09:41:04.649Z,61.65
2019-01-29T09:43:33.016Z,62.42
2019-01-29T09:46:01.445Z,62.57
2019-01-29T09:48:29.774Z,62.09
2019-01-29T09:50:58.097Z,61.88
2019-01-29T09:53:26.471Z,60.86
2019-01-29T09:55:54.865Z,60.57
2019-01-29T09:58:23.285Z,61.41
2019-01-29T10:00:51.611Z,62.20
2019-01-29T10:03:19.933Z,72.64
2019-01-29T10:05:48.290Z,65.14
2019-01-29T10:08:16.727Z,65.02
2019-01-29T10:10:45.108Z,58.39
2019-01-29T10:13:13.532Z,58.99
2019-01-29T10:15:42.100Z,62.39
2019-01-29T10:18:10.493Z,60.98
2019-01-29T10:20:39.114Z,57.80
2019-01-29T10:23:07.667Z,58.73
2019-01-29T10:25:37.796Z,60.28
2019-01-29T10:28:06.915Z,61.35
2019-01-29T10:30:35.231Z,62.49
2019-01-29T10:33:03.766Z,63.30
2019-01-29T10:35:32.197Z,62.61
2019-01-29T10:38:00.589Z,62.69
2019-01-29T10:40:29.523Z,62.71
2019-01-29T10:42:58.293Z,62.12
2019-01-29T10:45:29.058Z,61.92
2019-01-29T10:47:57.455Z,61.40
2019-01-29T10:50:28.844Z,61.69
2019-01-29T10:52:57.325Z,62.77
2019-01-29T10:55:25.889Z,62.03
2019-01-29T10:57:54.363Z,62.14
2019-01-29T11:00:26.786Z,61.13
2019-01-29T11:02:55.244Z,61.21
2019-01-29T11:05:23.834Z,62.17
2019-01-29T11:07:52.229Z,62.57
2019-01-29T11:10:21.097Z,62.78
2019-01-29T11:12:49.511Z,62.60
2019-01-29T11:15:22.420Z,63.38
2019-01-29T11:17:50.874Z,61.91
2019-01-29T11:20:19.505Z,61.92
2019-01-29T11:22:48.108Z,61.61
2019-01-29T11:25:19.714Z,60.36
2019-01-29T11:27:48.178Z,60.31
2019-01-29T11:30:18.503Z,59.12
2019-01-29T11:32:46.906Z,60.08
2019-01-29T11:35:15.349Z,59.66
2019-01-29T11:37:43.773Z,59.89
2019-01-29T11:40:15.641Z,60.12
2019-01-29T11:42:44.106Z,60.25
2019-01-29T11:45:17.037Z,59.28
2019-01-29T11:47:45.483Z,59.63
2019-01-29T11:50:13.927Z,60.02
2019-01-29T11:52:42.272Z,59.29
2019-01-29T11:55:11.173Z,58.37
2019-01-29T11:57:39.500Z,58.52
2019-01-29T12:00:13.531Z,57.90
2019-01-29T12:02:41.930Z,57.11
2019-01-29T12:05:10.746Z,57.34
2019-01-29T12:07:39.080Z,57.33
2019-01-29T12:10:10.583Z,57.37
2019-01-29T12:12:39.056Z,57.18
2019-01-29T12:15:10.901Z,56.96
2019-01-29T12:17:39.234Z,56.73
2019-01-29T12:20:10.279Z,56.81
2019-01-29T12:22:38.820Z,55.70
2019-01-29T12:25:07.870Z,55.31
2019-01-29T12:27:36.200Z,55.52
2019-01-29T12:30:08.292Z,56.44
2019-01-29T12:32:36.746Z,55.83
2019-01-29T12:35:08.212Z,56.05
2019-01-29T12:37:36.556Z,55.38
2019-01-29T12:40:07.252Z,55.47
2019-01-29T12:42:35.923Z,56.27
2019-01-29T12:45:08.089Z,56.14
2019-01-29T12:47:36.583Z,54.92
2019-01-29T12:50:10.818Z,54.27
2019-01-29T12:52:41.164Z,55.08
2019-01-29T12:55:11.347Z,54.59
2019-01-29T12:57:40.419Z,54.58
2019-01-29T13:00:14.256Z,53.58
2019-01-29T13:02:42.606Z,54.66
2019-01-29T13:05:13.015Z,55.81
2019-01-29T13:07:41.684Z,55.44
2019-01-29T13:10:15.173Z,55.84
2019-01-29T13:12:43.474Z,55.93
2019-01-29T13:15:15.405Z,55.97
2019-01-29T13:17:43.724Z,54.70
2019-01-29T13:20:12.190Z,54.97
2019-01-29T13:22:40.583Z,55.20
2019-01-29T13:25:11.455Z,56.30
2019-01-29T13:27:39.778Z,55.55
2019-01-29T13:30:37.013Z,54.69
2019-01-29T13:33:07.742Z,54.16
2019-01-29T13:35:37.320Z,55.25
2019-01-29T13:38:06.387Z,55.28
2019-01-29T13:40:34.865Z,55.15
2019-01-29T13:43:03.264Z,55.14
2019-01-29T13:45:31.682Z,53.92
2019-01-29T13:48:00.573Z,54.21
2019-01-29T13:50:32.487Z,53.87
2019-01-29T13:53:00.942Z,55.19
2019-01-29T13:55:29.393Z,54.29
2019-01-29T13:57:58.161Z,53.65
2019-01-29T14:00:29.040Z,53.97
2019-01-29T14:02:57.494Z,53.05
2019-01-29T14:05:26.015Z,53.66
2019-01-29T14:07:54.363Z,53.64
2019-01-29T14:10:22.938Z,53.74
2019-01-29T14:12:51.417Z,54.48
2019-01-29T14:15:23.228Z,53.49
2019-01-29T14:17:53.157Z,54.78
2019-01-29T14:20:21.511Z,55.56
2019-01-29T14:22:49.845Z,55.50
2019-01-29T14:25:18.217Z,54.62
2019-01-29T14:27:46.577Z,55.23
2019-01-29T14:30:17.973Z,55.77
2019-01-29T14:32:46.367Z,56.35
2019-01-29T14:35:16.168Z,56.60
2019-01-29T14:37:50.934Z,57.71
2019-01-29T14:40:19.588Z,57.68
2019-01-29T14:42:47.930Z,57.47
2019-01-29T14:45:18.419Z,57.52
2019-01-29T14:47:46.742Z,57.98
2019-01-29T14:50:16.158Z,58.07
2019-01-29T14:52:44.491Z,57.09
2019-01-29T14:55:13.126Z,56.80
2019-01-29T14:57:41.449Z,57.36
2019-01-29T15:00:13.857Z,57.51
2019-01-29T15:02:42.272Z,57.53
2019-01-29T15:05:11.363Z,57.91
2019-01-29T15:07:39.723Z,58.41
2019-01-29T15:10:13.885Z,57.99
2019-01-29T15:12:42.382Z,58.92
2019-01-29T15:15:14.272Z,58.69
2019-01-29T15:17:44.654Z,58.67
2019-01-29T15:20:13.142Z,58.53
2019-01-29T15:22:42.512Z,59.12
2019-01-29T15:25:12.043Z,58.44
2019-01-29T15:27:40.629Z,58.95
2019-01-29T15:30:13.005Z,58.79
2019-01-29T15:32:41.406Z,58.23
2019-01-29T15:35:10.610Z,57.91
2019-01-29T15:37:38.926Z,58.28
2019-01-29T15:40:12.743Z,59.21
2019-01-29T15:42:41.233Z,58.62
2019-01-29T15:45:13.385Z,58.26
2019-01-29T15:47:41.863Z,58.24
2019-01-29T15:50:11.997Z,57.54
2019-01-29T15:52:48.314Z,57.57
2019-01-29T15:55:13.569Z,58.07
2019-01-29T15:57:43.020Z,57.69
2019-01-29T16:00:17.970Z,58.10
2019-01-29T16:02:46.286Z,58.21
2019-01-29T16:05:17.097Z,58.48
2019-01-29T16:07:45.443Z,58.74
2019-01-29T16:10:17.758Z,59.35
2019-01-29T16:12:46.070Z,59.76
2019-01-29T16:15:17.930Z,60.36
2019-01-29T16:17:46.259Z,59.64
2019-01-29T16:20:17.112Z,60.20
2019-01-29T16:22:45.525Z,59.78
2019-01-29T16:25:16.883Z,60.21
2019-01-29T16:27:45.279Z,60.26
2019-01-29T16:30:17.872Z,61.19
2019-01-29T16:32:46.373Z,61.03
2019-01-29T16:35:18.123Z,61.20
2019-01-29T16:37:46.435Z,61.16
2019-01-29T16:40:18.118Z,61.11
2019-01-29T16:42:46.494Z,61.30
2019-01-29T16:45:18.945Z,61.59
2019-01-29T16:47:47.413Z,61.39
2019-01-29T16:50:18.635Z,61.15
2019-01-29T16:52:47.107Z,61.58
2019-01-29T16:55:17.745Z,61.35
2019-01-29T16:57:46.074Z,60.99
2019-01-29T17:00:17.679Z,61.01
2019-01-29T17:02:46.136Z,61.80
2019-01-29T17:05:14.585Z,61.50
2019-01-29T17:07:43.005Z,61.76
2019-01-29T17:10:16.570Z,61.27
2019-01-29T17:12:45.028Z,61.56
2019-01-29T17:15:17.105Z,61.52
2019-01-29T17:17:45.444Z,62.16
2019-01-29T17:20:17.401Z,59.37
2019-01-29T17:22:45.980Z,58.30
2019-01-29T17:25:14.708Z,59.44
2019-01-29T17:27:43.236Z,58.95
2019-01-29T17:30:17.419Z,59.28
2019-01-29T17:32:45.753Z,60.09
2019-01-29T17:35:14.785Z,60.59
2019-01-29T17:37:43.119Z,61.21
2019-01-29T17:40:14.956Z,61.12
2019-01-29T17:42:43.334Z,61.35
2019-01-29T17:45:14.626Z,61.63
2019-01-29T17:47:42.951Z,60.85
2019-01-29T17:50:15.372Z,61.17
2019-01-29T17:52:43.858Z,60.75
2019-01-29T17:55:13.603Z,61.25
2019-01-29T17:57:50.553Z,61.40
2019-01-29T18:00:15.951Z,61.11
2019-01-29T18:02:44.364Z,61.58
2019-01-29T18:05:14.021Z,61.87
2019-01-29T18:07:42.782Z,61.92
2019-01-29T18:10:15.242Z,62.42
2019-01-29T18:12:43.708Z,62.89
2019-01-29T18:15:14.221Z,63.76
2019-01-29T18:17:43.464Z,63.69
2019-01-29T18:20:12.808Z,64.16
2019-01-29T18:22:41.140Z,64.43
2019-01-29T18:25:12.074Z,65.29
2019-01-29T18:27:42.027Z,65.57
2019-01-29T18:30:15.587Z,65.93
2019-01-29T18:32:43.962Z,66.28
2019-01-29T18:35:13.411Z,66.82
2019-01-29T18:37:42.697Z,66.91
2019-01-29T18:40:16.691Z,67.44
2019-01-29T18:42:45.088Z,67.77
2019-01-29T18:45:14.173Z,68.26
2019-01-29T18:47:42.510Z,68.46
2019-01-29T18:50:14.745Z,68.75
2019-01-29T18:52:43.920Z,69.51
2019-01-29T18:55:13.522Z,69.82
2019-01-29T18:57:41.966Z,69.96
2019-01-29T19:00:14.889Z,69.91
2019-01-29T19:02:46.280Z,70.52
2019-01-29T19:05:15.153Z,70.64
2019-01-29T19:07:44.903Z,70.76
2019-01-29T19:10:16.261Z,70.93
2019-01-29T19:12:44.963Z,71.03
2019-01-29T19:15:16.415Z,71.48
2019-01-29T19:17:44.916Z,71.55
2019-01-29T19:20:17.805Z,71.87
2019-01-29T19:22:46.294Z,72.06
2019-01-29T19:25:16.054Z,72.03
2019-01-29T19:27:44.548Z,72.25
2019-01-29T19:30:17.402Z,72.54
2019-01-29T19:32:45.756Z,72.62
2019-01-29T19:35:15.032Z,73.04
2019-01-29T19:37:43.355Z,72.96
2019-01-29T19:40:14.675Z,73.19
2019-01-29T19:42:43.149Z,73.08
2019-01-29T19:45:16.767Z,73.51
2019-01-29T19:47:45.141Z,73.43
2019-01-29T19:50:18.589Z,73.74
2019-01-29T19:52:46.977Z,73.86
2019-01-29T19:55:15.450Z,73.71
2019-01-29T19:57:44.069Z,74.04
2019-01-29T20:00:18.868Z,73.93
2019-01-29T20:02:47.186Z,73.91
2019-01-29T20:05:15.534Z,74.09
2019-01-29T20:07:43.982Z,74.29
2019-01-29T20:10:15.166Z,74.42
2019-01-29T20:12:43.482Z,74.57
2019-01-29T20:15:13.570Z,74.50
2019-01-29T20:17:41.950Z,74.69
2019-01-29T20:20:15.380Z,74.96
2019-01-29T20:22:43.825Z,74.76
2019-01-29T20:25:13.454Z,74.33
2019-01-29T20:27:41.762Z,74.76
2019-01-29T20:30:13.851Z,74.48
2019-01-29T20:32:42.287Z,74.76
2019-01-29T20:35:10.983Z,75.19
2019-01-29T20:37:39.533Z,75.05
2019-01-29T20:40:13.860Z,75.02
2019-01-29T20:42:42.242Z,75.25
2019-01-29T20:45:12.267Z,75.38
2019-01-29T20:47:40.768Z,75.09
2019-01-29T20:50:12.986Z,75.27
2019-01-29T20:52:41.324Z,75.24
2019-01-29T20:55:11.624Z,75.15
2019-01-29T20:57:40.047Z,75.24
2019-01-29T21:00:13.757Z,75.33
2019-01-29T21:02:42.155Z,75.52
2019-01-29T21:05:10.943Z,75.06
2019-01-29T21:07:39.262Z,75.47
2019-01-29T21:10:13.036Z,75.34
2019-01-29T21:12:41.421Z,75.24
2019-01-29T21:15:11.467Z,75.44
2019-01-29T21:17:39.869Z,75.69
2019-01-29T21:20:13.526Z,75.79
2019-01-29T21:22:42.009Z,75.79
2019-01-29T21:25:11.769Z,75.63
2019-01-29T21:27:40.079Z,75.66
2019-01-29T21:30:11.996Z,75.22
2019-01-29T21:32:40.309Z,75.25
2019-01-29T21:35:08.965Z,75.12
2019-01-29T21:37:37.434Z,74.71
2019-01-29T21:40:08.811Z,74.83
2019-01-29T21:42:37.099Z,74.70
2019-01-29T21:45:07.676Z,74.65
2019-01-29T21:47:36.089Z,75.06
2019-01-29T21:50:11.634Z,74.85
2019-01-29T21:52:39.912Z,74.78
2019-01-29T21:55:11.940Z,74.96
2019-01-29T21:57:40.554Z,75.15
2019-01-29T22:00:14.633Z,75.04
2019-01-29T22:02:42.944Z,74.79
2019-01-29T22:05:13.829Z,74.81
2019-01-29T22:07:42.714Z,74.79
2019-01-29T22:10:15.646Z,74.46
2019-01-29T22:12:43.953Z,74.28
2019-01-29T22:15:15.577Z,74.40
2019-01-29T22:17:44.497Z,74.29
2019-01-29T22:20:20.249Z,74.34
2019-01-29T22:22:50.356Z,74.01
2019-01-29T22:25:22.018Z,73.74
2019-01-29T22:27:51.270Z,73.97
2019-01-29T22:30:23.611Z,73.89
2019-01-29T22:32:52.636Z,73.29
2019-01-29T22:35:21.511Z,73.45
2019-01-29T22:37:50.006Z,73.04
2019-01-29T22:40:22.605Z,72.94
2019-01-29T22:42:51.093Z,73.03
2019-01-29T22:45:20.286Z,72.50
2019-01-29T22:47:48.794Z,72.72
2019-01-29T22:50:22.225Z,72.68
2019-01-29T22:52:51.638Z,72.61
2019-01-29T22:55:20.672Z,72.29
2019-01-29T22:57:50.670Z,72.29
2019-01-29T23:00:22.839Z,71.58
2019-01-29T23:02:52.450Z,71.25
2019-01-29T23:05:22.810Z,70.91
2019-01-29T23:07:53.822Z,70.50
2019-01-29T23:10:23.248Z,70.88
2019-01-29T23:12:51.619Z,70.44
2019-01-29T23:15:20.226Z,70.54
2019-01-29T23:17:48.617Z,70.86
2019-01-29T23:20:17.787Z,70.47
2019-01-29T23:22:46.200Z,70.49
2019-01-29T23:25:14.854Z,70.83
2019-01-29T23:27:43.233Z,70.71
2019-01-29T23:30:16.323Z,70.80
2019-01-29T23:32:44.736Z,70.88
2019-01-29T23:35:14.084Z,70.60
2019-01-29T23:37:42.827Z,70.75
2019-01-29T23:40:13.067Z,70.26
2019-01-29T23:42:41.420Z,69.88
2019-01-29T23:45:12.161Z,70.06
2019-01-29T23:47:40.536Z,70.04
2019-01-29T23:50:11.310Z,69.78
2019-01-29T23:52:39.769Z,69.13
2019-01-29T23:55:08.738Z,69.49
2019-01-29T23:57:37.157Z,69.73
